Time;durP1;ratioP1;P1;durP2;ratioP2;P2;SDS_P1;SDS_P2;PMS_P1;PMS_P2;Temp;Humidity;BMP_temperature;BMP_pressure;BME280_temperature;BME280_humidity;BME280_pressure;Samples;Min_cycle;Max_cycle;Signal;HPM_P1;HPM_P2
2021/09/25 00:00:44;;;;;;;0.30;0.30;;;;;;;7.24;88.30;98628.22;5011598;28;20436;-72
2021/09/25 00:03:10;;;;;;;0.30;0.30;;;;;;;7.25;88.48;98623.69;5012510;28;20049;-72
2021/09/25 00:05:38;;;;;;;0.40;0.40;;;;;;;7.21;88.35;98616.94;5012391;28;20137;-77
2021/09/25 00:08:04;;;;;;;0.30;0.30;;;;;;;7.20;88.12;98620.59;5012640;28;20046;-72
2021/09/25 00:10:31;;;;;;;0.30;0.30;;;;;;;7.25;88.66;98623.69;5011751;28;20071;-71
2021/09/25 00:12:57;;;;;;;0.38;0.38;;;;;;;7.25;88.24;98621.00;5011653;28;20049;-69
2021/09/25 00:15:24;;;;;;;0.30;0.30;;;;;;;7.24;88.45;98628.22;5010961;28;20167;-69
2021/09/25 00:17:50;;;;;;;0.30;0.30;;;;;;;7.18;88.29;98619.94;5010930;28;20050;-72
2021/09/25 00:20:17;;;;;;;0.30;0.30;;;;;;;7.21;88.41;98616.94;4994606;28;20414;-72
2021/09/25 00:22:44;;;;;;;0.30;0.30;;;;;;;7.24;87.76;98625.53;5011000;28;20050;-71
2021/09/25 00:25:10;;;;;;;0.40;0.40;;;;;;;7.25;88.35;98618.31;5010414;28;20046;-71
2021/09/25 00:27:36;;;;;;;0.40;0.40;;;;;;;7.23;87.99;98609.56;4994544;28;20050;-74
2021/09/25 00:30:05;;;;;;;0.30;0.30;;;;;;;7.23;87.99;98609.56;4994009;28;20049;-69
2021/09/25 00:32:31;;;;;;;0.40;0.40;;;;;;;7.27;87.99;98613.59;5026844;28;20049;-69
2021/09/25 00:34:57;;;;;;;0.30;0.30;;;;;;;7.29;88.02;98602.72;5010307;28;20112;-71
2021/09/25 00:37:23;;;;;;;0.30;0.30;;;;;;;7.30;87.63;98602.56;5011640;28;20139;-70
2021/09/25 00:39:49;;;;;;;0.30;0.30;;;;;;;7.35;87.58;98608.31;4993916;28;20068;-70
2021/09/25 00:42:14;;;;;;;0.30;0.30;;;;;;;7.39;87.50;98615.06;4993960;28;20440;-71
2021/09/25 00:44:40;;;;;;;0.40;0.40;;;;;;;7.36;87.44;98604.63;5009733;28;20042;-70
2021/09/25 00:47:06;;;;;;;0.40;0.40;;;;;;;7.33;87.23;98610.31;5010685;28;20084;-74
2021/09/25 00:49:32;;;;;;;0.30;0.30;;;;;;;7.29;87.13;98603.56;5010122;28;20045;-68
2021/09/25 00:51:57;;;;;;;0.30;0.30;;;;;;;7.33;87.00;98602.25;5010279;28;20062;-71
2021/09/25 00:54:23;;;;;;;0.30;0.30;;;;;;;7.36;86.97;98604.63;5010223;28;20445;-69
2021/09/25 00:56:49;;;;;;;0.40;0.40;;;;;;;7.37;86.88;98595.53;5010210;28;20050;-71
2021/09/25 00:59:18;;;;;;;0.30;0.30;;;;;;;7.38;87.31;98607.97;4993343;28;20042;-70
2021/09/25 01:01:45;;;;;;;0.30;0.30;;;;;;;7.40;87.02;98605.16;5010044;28;20053;-72
2021/09/25 01:04:11;;;;;;;0.30;0.30;;;;;;;7.34;86.99;98606.59;4994029;28;20042;-72
2021/09/25 01:06:38;;;;;;;0.30;0.30;;;;;;;7.35;86.79;98605.63;5010000;28;20057;-72
2021/09/25 01:09:07;;;;;;;0.30;0.30;;;;;;;7.33;87.04;98623.75;5010323;28;20068;-72
2021/09/25 01:11:33;;;;;;;0.30;0.30;;;;;;;7.34;87.40;98611.97;5011068;28;20077;-72
2021/09/25 01:13:59;;;;;;;0.30;0.30;;;;;;;7.31;87.10;98616.84;5009782;28;20076;-71
2021/09/25 01:16:25;;;;;;;0.30;0.30;;;;;;;7.36;86.98;98615.38;5010104;28;20046;-72
2021/09/25 01:18:52;;;;;;;0.30;0.30;;;;;;;7.35;86.89;98613.69;5010201;28;20116;-73
2021/09/25 01:21:18;;;;;;;0.30;0.30;;;;;;;7.35;86.95;98605.63;5010264;28;20046;-71
2021/09/25 01:23:45;;;;;;;0.40;0.40;;;;;;;7.36;86.99;98607.31;5009981;28;20145;-74
2021/09/25 01:26:11;;;;;;;0.30;0.30;;;;;;;7.31;87.07;98617.66;4993782;28;20053;-74
2021/09/25 01:28:38;;;;;;;0.30;0.30;;;;;;;7.40;86.84;98616.75;5011434;28;20050;-70
2021/09/25 01:31:05;;;;;;;0.30;0.30;;;;;;;7.29;87.26;98619.69;5011057;28;20050;-73
2021/09/25 01:33:34;;;;;;;0.30;0.30;;;;;;;7.27;87.56;98616.28;5009489;28;20034;-71
2021/09/25 01:36:01;;;;;;;0.40;0.40;;;;;;;7.31;87.51;98617.66;5010658;28;20061;-73
2021/09/25 01:38:26;;;;;;;0.40;0.40;;;;;;;7.24;87.65;98622.00;5009381;28;20148;-71
2021/09/25 01:40:52;;;;;;;0.40;0.40;;;;;;;7.21;87.58;98627.69;5009150;28;20514;-70
2021/09/25 01:43:18;;;;;;;0.40;0.40;;;;;;;7.30;87.61;98621.38;5009580;28;20490;-71
2021/09/25 01:45:46;;;;;;;0.40;0.40;;;;;;;7.30;87.21;98621.38;5026048;28;20042;-70
2021/09/25 01:48:12;;;;;;;0.30;0.30;;;;;;;7.31;87.38;98622.22;5009313;28;20058;-72
2021/09/25 01:50:39;;;;;;;0.40;0.40;;;;;;;7.33;87.20;98629.13;5009175;28;20053;-71
2021/09/25 01:53:06;;;;;;;0.38;0.38;;;;;;;7.33;87.44;98630.97;5009355;28;20465;-71
2021/09/25 01:55:32;;;;;;;0.30;0.30;;;;;;;7.30;87.63;98626.75;4992729;28;20038;-70
2021/09/25 01:57:58;;;;;;;0.32;0.32;;;;;;;7.29;87.49;98626.91;5010902;28;20061;-71
2021/09/25 02:00:27;;;;;;;0.30;0.30;;;;;;;7.30;87.36;98621.38;5025377;28;20045;-71
2021/09/25 02:02:53;;;;;;;0.30;0.30;;;;;;;7.22;87.62;98626.69;5010116;28;20384;-73
2021/09/25 02:05:21;;;;;;;0.30;0.30;;;;;;;7.25;88.12;98629.06;5009117;28;20054;-70
2021/09/25 02:07:48;;;;;;;0.30;0.30;;;;;;;7.29;87.94;98619.69;5008997;28;20282;-71
2021/09/25 02:10:15;;;;;;;0.30;0.30;;;;;;;7.34;88.06;98625.44;5008280;28;20513;-71
2021/09/25 02:12:41;;;;;;;0.40;0.40;;;;;;;7.25;88.20;98623.69;5008835;28;20053;-71
2021/09/25 02:15:08;;;;;;;0.30;0.30;;;;;;;7.25;88.06;98629.91;5008721;28;20050;-72
2021/09/25 02:17:34;;;;;;;0.30;0.30;;;;;;;7.27;88.06;98627.06;5008561;28;20049;-70
2021/09/25 02:19:59;;;;;;;0.30;0.30;;;;;;;7.26;88.07;98630.75;5008493;28;20045;-69
2021/09/25 02:22:25;;;;;;;0.30;0.30;;;;;;;7.21;88.34;98625.84;5009950;28;20054;-71
2021/09/25 02:24:51;;;;;;;0.30;0.30;;;;;;;7.30;88.04;98620.53;5008901;28;20153;-72
2021/09/25 02:27:17;;;;;;;0.30;0.30;;;;;;;7.30;88.10;98626.75;5008855;28;20121;-72
2021/09/25 02:29:43;;;;;;;0.40;0.40;;;;;;;7.28;87.98;98628.75;5008461;28;20082;-72
2021/09/25 02:32:09;;;;;;;0.30;0.30;;;;;;;7.26;88.11;98628.06;4992589;28;20060;-72
2021/09/25 02:34:35;;;;;;;0.40;0.40;;;;;;;7.25;88.36;98612.94;5008573;28;20150;-72
2021/09/25 02:37:02;;;;;;;0.30;0.30;;;;;;;7.25;88.19;98612.94;4992029;28;20058;-72
2021/09/25 02:39:28;;;;;;;0.30;0.30;;;;;;;7.20;88.19;98621.47;4991633;28;20046;-72
2021/09/25 02:41:54;;;;;;;0.38;0.38;;;;;;;7.22;88.29;98615.94;5008481;28;20128;-71
2021/09/25 02:44:20;;;;;;;0.40;0.40;;;;;;;7.31;88.06;98631.09;4992157;28;20112;-71
2021/09/25 02:46:47;;;;;;;0.30;0.30;;;;;;;7.26;87.90;98630.75;5008420;28;20057;-69
2021/09/25 02:49:19;;;;;;;0.30;0.30;;;;;;;7.25;88.38;98626.38;4991969;28;20038;-72
2021/09/25 02:51:47;;;;;;;0.30;0.30;;;;;;;7.19;88.50;98624.31;5008730;28;20185;-71
2021/09/25 02:54:13;;;;;;;0.30;0.30;;;;;;;7.22;88.22;98629.38;5008244;28;20056;-70
2021/09/25 02:56:39;;;;;;;0.30;0.30;;;;;;;7.24;88.65;98627.38;5008583;28;20054;-74
2021/09/25 02:59:05;;;;;;;0.40;0.40;;;;;;;7.19;88.69;98630.53;5008106;28;20061;-71
2021/09/25 03:01:32;;;;;;;0.30;0.30;;;;;;;7.25;88.26;98629.06;4992063;28;20390;-70
2021/09/25 03:03:57;;;;;;;0.30;0.30;;;;;;;7.23;88.48;98628.38;4991829;28;20525;-71
2021/09/25 03:06:25;;;;;;;0.30;0.30;;;;;;;7.20;88.81;98625.97;5008196;28;20057;-72
2021/09/25 03:08:51;;;;;;;0.40;0.40;;;;;;;7.22;88.78;98624.00;5007920;28;20050;-72
2021/09/25 03:11:17;;;;;;;0.35;0.35;;;;;;;7.29;88.43;98625.06;5008071;28;20053;-72
2021/09/25 03:13:43;;;;;;;0.30;0.30;;;;;;;7.29;88.17;98622.38;5008034;28;20042;-72
2021/09/25 03:16:09;;;;;;;0.40;0.40;;;;;;;7.35;88.30;98629.81;5008230;28;20046;-74
2021/09/25 03:18:35;;;;;;;0.30;0.30;;;;;;;7.33;88.05;98630.97;5009097;28;20042;-73
2021/09/25 03:21:00;;;;;;;0.40;0.40;;;;;;;7.28;88.13;98634.13;5009368;28;20084;-70
2021/09/25 03:23:26;;;;;;;0.40;0.40;;;;;;;7.29;88.49;98649.25;5011415;28;20046;-71
2021/09/25 03:25:52;;;;;;;0.30;0.30;;;;;;;7.31;88.21;98638.34;4995710;28;20053;-71
2021/09/25 03:28:18;;;;;;;0.35;0.35;;;;;;;7.28;88.27;98635.94;5012004;28;20104;-74
2021/09/25 03:30:44;;;;;;;0.40;0.40;;;;;;;7.34;88.40;98633.50;5011983;28;20100;-71
2021/09/25 03:33:10;;;;;;;0.40;0.40;;;;;;;7.32;88.33;98634.66;4995589;28;20120;-71
2021/09/25 03:35:35;;;;;;;0.40;0.40;;;;;;;7.25;88.46;98639.81;5012149;28;20462;-73
2021/09/25 03:38:02;;;;;;;0.38;0.38;;;;;;;7.23;88.67;98636.44;5011904;28;20136;-71
2021/09/25 03:40:28;;;;;;;0.30;0.30;;;;;;;7.21;88.74;98641.97;5011575;28;20099;-71
2021/09/25 03:42:54;;;;;;;0.30;0.30;;;;;;;7.25;88.63;98631.75;4995009;28;20573;-70
2021/09/25 03:45:20;;;;;;;0.30;0.30;;;;;;;7.27;88.55;98632.44;5011295;28;20177;-71
2021/09/25 03:47:46;;;;;;;0.30;0.30;;;;;;;7.25;88.63;98623.69;5011511;28;20054;-71
2021/09/25 03:50:12;;;;;;;0.40;0.40;;;;;;;7.24;88.89;98622.84;5011335;28;20092;-71
2021/09/25 03:52:38;;;;;;;0.30;0.30;;;;;;;7.22;88.65;98629.38;5011192;28;20057;-73
2021/09/25 03:55:06;;;;;;;0.40;0.40;;;;;;;7.28;88.54;98634.13;4994761;28;20112;-72
2021/09/25 03:57:31;;;;;;;0.30;0.30;;;;;;;7.29;88.77;98633.13;5012904;28;20136;-71
2021/09/25 03:59:57;;;;;;;0.30;0.30;;;;;;;7.24;88.87;98628.22;5011174;28;20136;-73
2021/09/25 04:02:23;;;;;;;0.30;0.30;;;;;;;7.32;88.44;98632.81;5011092;28;20045;-73
2021/09/25 04:04:49;;;;;;;0.30;0.30;;;;;;;7.27;88.72;98621.66;5011088;28;20045;-76
2021/09/25 04:07:15;;;;;;;0.40;0.40;;;;;;;7.28;88.64;98625.19;5011221;28;20038;-72
2021/09/25 04:09:40;;;;;;;0.40;0.40;;;;;;;7.29;88.85;98634.97;4994631;28;20042;-73
2021/09/25 04:12:06;;;;;;;0.30;0.30;;;;;;;7.34;88.49;98638.03;4994663;28;20049;-72
2021/09/25 04:14:32;;;;;;;0.40;0.40;;;;;;;7.35;88.79;98640.59;5011185;28;20049;-72
2021/09/25 04:16:58;;;;;;;0.30;0.30;;;;;;;7.36;88.70;98639.56;5011403;28;20100;-72
2021/09/25 04:19:25;;;;;;;0.40;0.40;;;;;;;7.38;88.55;98634.88;5012815;28;20099;-73
2021/09/25 04:21:50;;;;;;;0.40;0.40;;;;;;;7.38;88.52;98632.19;5011058;28;20077;-73
2021/09/25 04:24:16;;;;;;;0.30;0.30;;;;;;;7.38;88.45;98634.88;5011067;28;20149;-71
2021/09/25 04:26:42;;;;;;;0.40;0.40;;;;;;;7.45;88.44;98629.72;5010923;28;20038;-72
2021/09/25 04:29:08;;;;;;;0.40;0.40;;;;;;;7.41;88.31;98621.13;5010702;28;20050;-72
2021/09/25 04:31:35;;;;;;;0.32;0.32;;;;;;;7.45;88.59;98625.19;5011830;28;20123;-72
2021/09/25 04:34:04;;;;;;;0.30;0.30;;;;;;;7.56;87.98;98632.16;5011708;28;20041;-73
2021/09/25 04:36:31;;;;;;;0.40;0.40;;;;;;;7.46;87.79;98626.88;5011309;28;20464;-73
2021/09/25 04:38:58;;;;;;;0.40;0.40;;;;;;;7.44;87.98;98628.88;4990621;28;20061;-72
2021/09/25 04:41:24;;;;;;;0.40;0.40;;;;;;;7.51;88.13;98628.25;4991003;28;20078;-73
2021/09/25 04:43:49;;;;;;;0.40;0.40;;;;;;;7.47;88.39;98623.19;4975572;28;20088;-71
2021/09/25 04:46:15;;;;;;;0.40;0.40;;;;;;;7.45;87.86;98646.69;4958586;28;20054;-72
2021/09/25 04:48:41;;;;;;;0.30;0.30;;;;;;;7.47;88.17;98635.78;4992769;28;20051;-73
2021/09/25 04:51:07;;;;;;;0.30;0.30;;;;;;;7.51;88.08;98633.63;4990861;28;20077;-73
2021/09/25 04:53:32;;;;;;;0.40;0.40;;;;;;;7.52;88.12;98624.56;5007053;28;20050;-73
2021/09/25 04:55:59;;;;;;;0.30;0.30;;;;;;;7.60;87.56;98632.69;4991093;28;20069;-73
2021/09/25 04:58:29;;;;;;;0.30;0.30;;;;;;;7.58;87.57;98623.94;4991246;28;20043;-72
2021/09/25 05:00:58;;;;;;;0.40;0.40;;;;;;;7.62;87.83;98633.38;4991580;28;20045;-72
2021/09/25 05:03:25;;;;;;;0.40;0.40;;;;;;;7.56;87.71;98625.94;4974032;28;20047;-72
2021/09/25 05:05:51;;;;;;;0.40;0.40;;;;;;;7.57;87.98;98630.28;4990399;28;20069;-73
2021/09/25 05:08:17;;;;;;;0.40;0.40;;;;;;;7.62;87.78;98631.53;4990458;28;20065;-73
2021/09/25 05:10:42;;;;;;;0.40;0.40;;;;;;;7.65;87.98;98633.06;4974221;28;20447;-70
2021/09/25 05:13:08;;;;;;;0.40;0.40;;;;;;;7.68;87.60;98636.28;5006288;28;20066;-73
2021/09/25 05:15:34;;;;;;;0.30;0.30;;;;;;;7.67;87.41;98647.19;4992011;28;20112;-71
2021/09/25 05:18:00;;;;;;;0.40;0.40;;;;;;;7.72;87.41;98637.66;4989941;28;20475;-71
2021/09/25 05:20:26;;;;;;;0.40;0.40;;;;;;;7.79;87.43;98640.56;4990185;28;20363;-72
2021/09/25 05:22:52;;;;;;;0.40;0.40;;;;;;;7.79;87.37;98637.88;4991192;28;20092;-72
2021/09/25 05:25:18;;;;;;;0.40;0.40;;;;;;;7.84;86.88;98637.38;4991453;28;20074;-73
2021/09/25 05:27:44;;;;;;;0.40;0.40;;;;;;;7.83;86.92;98641.09;4991681;28;20046;-73
2021/09/25 05:30:11;;;;;;;0.40;0.40;;;;;;;7.84;87.01;98640.91;4974596;28;20042;-73
2021/09/25 05:32:37;;;;;;;0.40;0.40;;;;;;;7.93;86.88;98639.09;4973986;28;20054;-70
2021/09/25 05:35:03;;;;;;;0.40;0.40;;;;;;;7.98;86.49;98632.25;4973632;28;20093;-72
2021/09/25 05:37:29;;;;;;;0.40;0.40;;;;;;;7.95;86.79;98631.72;4989565;28;20506;-73
2021/09/25 05:39:56;;;;;;;0.40;0.40;;;;;;;7.92;86.70;98632.88;4991428;28;20108;-74
2021/09/25 05:42:23;;;;;;;0.40;0.40;;;;;;;7.94;86.53;98624.69;4990208;28;20042;-74
2021/09/25 05:44:49;;;;;;;0.40;0.40;;;;;;;8.07;85.69;98627.75;5005991;28;20116;-73
2021/09/25 05:47:15;;;;;;;0.40;0.40;;;;;;;7.87;85.96;98640.59;4990327;28;20051;-73
2021/09/25 05:49:42;;;;;;;0.32;0.32;;;;;;;7.81;86.13;98625.09;4989787;28;20132;-70
2021/09/25 05:52:08;;;;;;;0.40;0.40;;;;;;;7.84;86.28;98643.59;4973801;28;20054;-74
2021/09/25 05:54:38;;;;;;;0.40;0.40;;;;;;;7.78;86.42;98638.84;4990310;28;20045;-74
2021/09/25 05:57:05;;;;;;;0.40;0.40;;;;;;;7.81;86.56;98649.31;4991287;28;20053;-73
2021/09/25 05:59:31;;;;;;;0.40;0.40;;;;;;;7.80;86.47;98633.34;4991031;28;20105;-73
2021/09/25 06:01:57;;;;;;;0.40;0.40;;;;;;;7.81;86.35;98643.91;4989933;28;20057;-73
2021/09/25 06:04:23;;;;;;;0.40;0.40;;;;;;;7.83;86.49;98647.31;4990058;28;20129;-73
2021/09/25 06:06:49;;;;;;;0.40;0.40;;;;;;;7.82;86.79;98650.16;5005736;28;20506;-73
2021/09/25 06:09:15;;;;;;;0.40;0.40;;;;;;;7.80;86.48;98650.31;4989378;28;20092;-73
2021/09/25 06:11:41;;;;;;;0.40;0.40;;;;;;;7.76;87.02;98648.94;4973515;28;20046;-73
2021/09/25 06:14:07;;;;;;;0.38;0.38;;;;;;;7.78;86.86;98654.16;4989343;28;20081;-74
2021/09/25 06:16:32;;;;;;;0.40;0.40;;;;;;;7.79;87.47;98656.72;4972981;28;20042;-74
2021/09/25 06:18:58;;;;;;;0.40;0.40;;;;;;;7.79;87.15;98651.31;4972841;28;20479;-75
2021/09/25 06:21:24;;;;;;;0.40;0.40;;;;;;;7.87;86.98;98646.00;4973355;28;20073;-73
2021/09/25 06:23:50;;;;;;;0.40;0.40;;;;;;;7.96;86.83;98650.41;4973583;28;20091;-73
2021/09/25 06:26:16;;;;;;;0.40;0.40;;;;;;;7.92;86.80;98650.88;4989599;28;20066;-73
2021/09/25 06:28:46;;;;;;;0.40;0.40;;;;;;;8.02;86.47;98645.41;4989193;28;20038;-73
2021/09/25 06:31:13;;;;;;;0.47;0.47;;;;;;;8.05;86.37;98648.63;4989699;28;20517;-73
2021/09/25 06:33:39;;;;;;;0.40;0.40;;;;;;;8.08;86.35;98644.75;4989138;28;20050;-73
2021/09/25 06:36:05;;;;;;;0.40;0.40;;;;;;;8.06;86.02;98649.47;4997244;28;20037;-73
2021/09/25 06:38:31;;;;;;;0.40;0.40;;;;;;;8.06;86.50;98644.06;4985423;28;20110;-73
2021/09/25 06:40:57;;;;;;;0.40;0.40;;;;;;;8.09;86.31;98654.53;5000697;28;20117;-74
2021/09/25 06:43:22;;;;;;;0.40;0.40;;;;;;;8.07;86.53;98656.53;4996349;28;20100;-73
2021/09/25 06:45:48;;;;;;;0.40;0.40;;;;;;;8.07;86.48;98656.53;4987177;28;20038;-73
2021/09/25 06:48:14;;;;;;;0.40;0.40;;;;;;;8.17;86.11;98651.88;5018985;28;20057;-74
2021/09/25 06:50:40;;;;;;;0.40;0.40;;;;;;;8.07;86.42;98646.59;5002178;28;20045;-73
2021/09/25 06:53:06;;;;;;;0.30;0.30;;;;;;;8.13;86.46;98650.50;4994223;28;20395;-73
2021/09/25 06:55:31;;;;;;;0.30;0.30;;;;;;;8.15;86.30;98653.88;4991175;28;20061;-73
2021/09/25 06:57:57;;;;;;;0.40;0.40;;;;;;;8.14;86.62;98636.03;5009261;28;20061;-73
2021/09/25 07:00:26;;;;;;;0.40;0.40;;;;;;;8.08;86.65;98636.66;5011788;28;20065;-73
2021/09/25 07:02:52;;;;;;;0.40;0.40;;;;;;;8.14;86.62;98647.63;4994516;28;20050;-74
2021/09/25 07:05:17;;;;;;;0.40;0.40;;;;;;;8.10;86.77;98642.75;5012132;28;20054;-73
2021/09/25 07:07:46;;;;;;;0.40;0.40;;;;;;;8.11;86.99;98630.97;5020081;28;20132;-75
2021/09/25 07:10:14;;;;;;;0.30;0.30;;;;;;;8.16;86.87;98639.41;5001215;28;20054;-74
2021/09/25 07:12:43;;;;;;;0.40;0.40;;;;;;;8.27;86.74;98636.44;5009221;28;20082;-72
2021/09/25 07:15:11;;;;;;;0.30;0.30;;;;;;;8.24;86.81;98644.84;5016920;28;20482;-74
2021/09/25 07:17:43;;;;;;;0.40;0.40;;;;;;;8.28;86.71;98638.13;5010611;28;20042;-73
2021/09/25 07:20:09;;;;;;;0.30;0.30;;;;;;;8.30;86.39;98646.03;5009397;28;20041;-74
2021/09/25 07:22:35;;;;;;;0.40;0.40;;;;;;;8.36;86.67;98640.84;5026170;28;20050;-73
2021/09/25 07:25:04;;;;;;;0.40;0.40;;;;;;;8.39;86.51;98631.63;4978206;28;20490;-74
2021/09/25 07:27:30;;;;;;;0.40;0.40;;;;;;;8.42;86.23;98618.69;5018854;28;20050;-75
2021/09/25 07:29:56;;;;;;;0.40;0.40;;;;;;;8.46;85.98;98624.59;4995594;28;20042;-75
2021/09/25 07:32:25;;;;;;;0.30;0.30;;;;;;;8.43;86.04;98631.16;5011508;28;20048;-71
2021/09/25 07:34:50;;;;;;;0.40;0.40;;;;;;;8.49;86.00;98620.75;5014661;28;20057;-72
2021/09/25 07:37:16;;;;;;;0.40;0.40;;;;;;;8.45;85.74;98629.16;4993477;28;20058;-71
2021/09/25 07:39:42;;;;;;;0.40;0.40;;;;;;;8.45;85.45;98618.38;5008968;28;20057;-71
2021/09/25 07:42:08;;;;;;;0.40;0.40;;;;;;;8.53;85.69;98625.63;4991782;28;20072;-71
2021/09/25 07:44:34;;;;;;;0.40;0.40;;;;;;;8.59;86.13;98619.59;5013883;28;20108;-72
2021/09/25 07:47:00;;;;;;;0.40;0.40;;;;;;;8.62;85.55;98623.78;4980555;28;20061;-73
2021/09/25 07:49:26;;;;;;;0.40;0.40;;;;;;;8.61;85.58;98612.19;5003826;28;20058;-71
2021/09/25 07:51:52;;;;;;;0.38;0.38;;;;;;;8.53;85.57;98614.84;5000231;28;20053;-77
2021/09/25 07:54:18;;;;;;;0.40;0.40;;;;;;;8.54;85.76;98610.31;4980551;28;20396;-73
2021/09/25 07:56:44;;;;;;;0.40;0.40;;;;;;;8.58;85.89;98611.66;4995716;28;20123;-75
2021/09/25 07:59:10;;;;;;;0.40;0.40;;;;;;;8.58;86.02;98608.97;4994586;28;20050;-75
2021/09/25 08:01:36;;;;;;;0.30;0.30;;;;;;;8.60;85.97;98615.03;4996641;28;20066;-71
2021/09/25 08:04:02;;;;;;;0.30;0.30;;;;;;;8.62;85.40;98610.31;5011388;28;20453;-74
2021/09/25 08:06:28;;;;;;;0.40;0.40;;;;;;;8.54;85.80;98615.69;4998923;28;20355;-70
2021/09/25 08:08:54;;;;;;;0.40;0.40;;;;;;;8.56;86.05;98613.69;4998726;28;20394;-76
2021/09/25 08:11:20;;;;;;;0.30;0.30;;;;;;;8.63;85.87;98614.72;5014281;28;20038;-73
2021/09/25 08:13:46;;;;;;;0.40;0.40;;;;;;;8.59;85.59;98616.03;5019642;28;20038;-72
2021/09/25 08:16:12;;;;;;;0.35;0.35;;;;;;;8.57;85.65;98616.22;5009473;28;20047;-72
2021/09/25 08:18:38;;;;;;;0.40;0.40;;;;;;;8.62;85.91;98613.00;5024157;28;20141;-73
2021/09/25 08:21:04;;;;;;;0.30;0.30;;;;;;;8.63;85.89;98618.25;5007977;28;20042;-72
2021/09/25 08:23:30;;;;;;;0.35;0.35;;;;;;;8.63;85.98;98614.72;5023142;28;20042;-72
2021/09/25 08:25:56;;;;;;;0.30;0.30;;;;;;;8.66;85.83;98627.84;5016471;28;20117;-73
2021/09/25 08:28:21;;;;;;;0.40;0.40;;;;;;;8.69;85.79;98616.75;5007168;28;20042;-73
2021/09/25 08:30:47;;;;;;;0.30;0.30;;;;;;;8.65;86.59;98612.69;4993877;28;20485;-73
2021/09/25 08:33:13;;;;;;;0.40;0.40;;;;;;;8.68;86.70;98615.91;5025631;28;20170;-73
2021/09/25 08:35:39;;;;;;;0.40;0.40;;;;;;;8.59;87.71;98605.25;5007838;28;20057;-74
2021/09/25 08:38:05;;;;;;;0.32;0.32;;;;;;;8.60;88.21;98598.88;5008754;28;20133;-72
2021/09/25 08:40:31;;;;;;;0.30;0.30;;;;;;;8.67;88.05;98611.53;5026571;28;20391;-72
2021/09/25 08:42:57;;;;;;;0.40;0.40;;;;;;;8.71;88.13;98609.34;5007808;28;20603;-73
2021/09/25 08:45:23;;;;;;;0.40;0.40;;;;;;;8.68;88.70;98612.38;5019059;28;20046;-73
2021/09/25 08:47:49;;;;;;;0.40;0.40;;;;;;;8.72;88.88;98605.63;5026443;28;20122;-72
2021/09/25 08:50:16;;;;;;;0.40;0.40;;;;;;;8.73;89.62;98603.78;5010774;28;20100;-72
2021/09/25 08:52:43;;;;;;;0.30;0.30;;;;;;;8.73;89.90;98603.78;4994249;28;20046;-72
2021/09/25 08:55:11;;;;;;;0.40;0.40;;;;;;;8.71;90.77;98605.81;5029478;28;20421;-73
2021/09/25 08:57:39;;;;;;;0.40;0.40;;;;;;;8.64;90.21;98600.25;5013270;28;20045;-74
2021/09/25 09:00:26;;;;;;;0.40;0.40;;;;;;;8.67;90.92;98594.53;5029460;28;20050;-72
2021/09/25 09:02:53;;;;;;;0.47;0.47;;;;;;;8.83;91.01;98583.75;4980425;28;20656;-72
2021/09/25 09:05:30;;;;;;;0.40;0.40;;;;;;;8.74;90.54;98587.47;4995839;28;20513;-74
2021/09/25 09:08:00;;;;;;;0.40;0.40;;;;;;;8.64;90.67;98589.47;5011228;28;20046;-73
2021/09/25 09:10:33;;;;;;;0.40;0.40;;;;;;;8.65;90.98;98593.84;5006121;28;20077;-73
2021/09/25 09:13:00;;;;;;;0.40;0.40;;;;;;;8.68;90.93;98582.72;5011564;28;20060;-73
2021/09/25 09:15:37;;;;;;;0.40;0.40;;;;;;;8.73;91.54;98583.06;5012015;28;20073;-73
2021/09/25 09:18:11;;;;;;;0.40;0.40;;;;;;;8.71;91.33;98578.88;5010121;28;20057;-75
2021/09/25 09:20:38;;;;;;;0.40;0.40;;;;;;;8.75;91.24;98578.38;5025818;28;20426;-74
2021/09/25 09:23:12;;;;;;;0.40;0.40;;;;;;;8.78;90.59;98580.72;5012264;28;20058;-74
2021/09/25 09:25:39;;;;;;;0.40;0.40;;;;;;;8.83;90.16;98583.75;5010705;28;20593;-77
2021/09/25 09:28:13;;;;;;;0.40;0.40;;;;;;;8.84;89.96;98588.13;5010365;28;20049;-72
2021/09/25 09:30:49;;;;;;;;;;;;;;;8.85;89.93;98581.75;5008465;28;20517;-74
2021/09/25 09:33:30;;;;;;;0.30;0.30;;;;;;;8.88;89.62;98591.34;4991216;28;19929;-75
2021/09/25 09:36:15;;;;;;;0.30;0.30;;;;;;;8.81;90.08;98591.19;5008264;28;20072;-74
2021/09/25 09:38:49;;;;;;;0.30;0.30;;;;;;;8.86;90.45;98596.06;4996418;28;20421;-74
2021/09/25 09:41:19;;;;;;;0.30;0.30;;;;;;;8.77;90.37;98595.19;5003114;28;20100;-74
2021/09/25 09:43:46;;;;;;;0.40;0.40;;;;;;;8.75;90.14;98582.91;4990505;28;20033;-74
2021/09/25 09:46:12;;;;;;;0.30;0.30;;;;;;;8.79;90.29;98586.97;5006231;28;20046;-72
2021/09/25 09:48:38;;;;;;;0.30;0.30;;;;;;;8.80;90.47;98589.47;5018971;28;20121;-73
2021/09/25 09:51:04;;;;;;;0.40;0.40;;;;;;;8.80;90.27;98594.88;5009235;28;20156;-73
2021/09/25 09:53:42;;;;;;;0.30;0.30;;;;;;;8.77;90.24;98579.03;4989436;28;20038;-73
2021/09/25 09:56:23;;;;;;;0.38;0.38;;;;;;;8.78;90.62;98586.13;5008870;28;20046;-74
2021/09/25 09:59:00;;;;;;;0.40;0.40;;;;;;;8.86;89.66;98583.44;5007521;28;20045;-74
2021/09/25 10:01:27;;;;;;;0.40;0.40;;;;;;;8.90;89.99;98579.41;5019835;28;20049;-74
2021/09/25 10:03:53;;;;;;;0.38;0.38;;;;;;;8.93;89.96;98583.63;4995738;28;20045;-74
2021/09/25 10:06:19;;;;;;;0.30;0.30;;;;;;;8.90;90.39;98584.78;5011437;28;20038;-74
2021/09/25 10:08:45;;;;;;;0.40;0.40;;;;;;;8.94;90.34;98580.75;5006053;28;20049;-74
2021/09/25 10:11:11;;;;;;;0.32;0.32;;;;;;;8.98;90.40;98583.09;4988958;28;20046;-74
2021/09/25 10:13:41;;;;;;;0.40;0.40;;;;;;;9.04;90.62;98574.34;4989260;28;20046;-74
2021/09/25 10:16:08;;;;;;;0.30;0.30;;;;;;;8.94;90.71;98575.34;4975704;28;20046;-74
2021/09/25 10:18:35;;;;;;;0.40;0.40;;;;;;;9.01;90.99;98574.69;4993485;28;20042;-74
2021/09/25 10:21:03;;;;;;;0.40;0.40;;;;;;;9.03;90.21;98572.66;5005060;28;20042;-74
2021/09/25 10:23:31;;;;;;;0.30;0.30;;;;;;;9.10;90.00;98573.66;5015466;28;20049;-73
2021/09/25 10:25:58;;;;;;;0.30;0.30;;;;;;;9.02;89.91;98566.41;5006723;28;20076;-73
2021/09/25 10:28:28;;;;;;;0.30;0.30;;;;;;;9.02;90.13;98571.81;4987441;28;20512;-73
2021/09/25 10:30:55;;;;;;;0.40;0.40;;;;;;;9.12;90.28;98568.97;5006170;28;20140;-73
2021/09/25 10:33:24;;;;;;;0.30;0.30;;;;;;;9.13;89.81;98559.84;5005380;28;20693;-75
2021/09/25 10:35:50;;;;;;;0.40;0.40;;;;;;;9.20;90.15;98560.84;4983475;28;20136;-73
2021/09/25 10:38:46;;;;;;;0.40;0.40;;;;;;;9.17;89.70;98563.88;5006125;28;20046;-73
2021/09/25 10:41:16;;;;;;;0.30;0.30;;;;;;;9.14;90.40;98564.22;4977567;28;20042;-72
2021/09/25 10:43:45;;;;;;;0.40;0.40;;;;;;;9.14;90.62;98565.09;4989295;28;20050;-73
2021/09/25 10:46:13;;;;;;;0.40;0.40;;;;;;;9.24;90.83;98559.50;5004913;28;20123;-73
2021/09/25 10:48:50;;;;;;;0.40;0.40;;;;;;;9.24;90.31;98564.91;5018170;28;20473;-80
2021/09/25 10:51:18;;;;;;;0.30;0.30;;;;;;;9.33;89.74;98553.09;4997058;28;20053;-76
2021/09/25 10:53:49;;;;;;;0.40;0.40;;;;;;;9.41;89.50;98560.34;4998504;28;20065;-75
2021/09/25 10:56:22;;;;;;;0.30;0.30;;;;;;;9.31;89.38;98563.22;4994010;28;20038;-74
2021/09/25 10:59:00;;;;;;;0.30;0.30;;;;;;;9.27;89.53;98566.44;4995877;28;20112;-75
2021/09/25 11:01:37;;;;;;;0.30;0.30;;;;;;;9.26;89.68;98562.88;4995239;28;20546;-75
2021/09/25 11:04:09;;;;;;;0.40;0.40;;;;;;;9.22;89.78;98558.84;4997622;28;20684;-75
2021/09/25 11:06:45;;;;;;;0.38;0.38;;;;;;;9.21;89.68;98565.22;4994956;28;20057;-70
2021/09/25 11:09:36;;;;;;;0.30;0.30;;;;;;;9.21;90.17;98565.22;5014501;28;20053;-78
2021/09/25 11:12:08;;;;;;;0.30;0.30;;;;;;;9.24;90.74;98564.06;4998252;28;20361;-76
2021/09/25 11:14:45;;;;;;;0.40;0.40;;;;;;;9.25;90.73;98565.75;4981677;28;20050;-73
2021/09/25 11:17:17;;;;;;;0.30;0.30;;;;;;;9.22;90.66;98561.56;5009731;28;20061;-71
2021/09/25 11:19:47;;;;;;;0.30;0.30;;;;;;;9.27;90.60;98559.16;4981234;28;20450;-72
2021/09/25 11:22:36;;;;;;;0.30;0.30;;;;;;;9.22;89.97;98550.75;4995747;28;20056;-70
2021/09/25 11:25:04;;;;;;;0.30;0.30;;;;;;;9.27;90.21;98553.78;4979291;28;20344;-70
2021/09/25 11:27:36;;;;;;;0.30;0.30;;;;;;;9.20;90.65;98549.25;4990784;28;20057;-71
2021/09/25 11:30:12;;;;;;;0.30;0.30;;;;;;;9.16;90.90;98562.22;4991534;28;20080;-69
2021/09/25 11:32:48;;;;;;;0.30;0.30;;;;;;;9.15;90.86;98547.91;4991468;28;20050;-68
2021/09/25 11:35:14;;;;;;;0.30;0.30;;;;;;;9.22;91.03;98553.47;4976379;28;20137;-69
2021/09/25 11:37:52;;;;;;;0.30;0.30;;;;;;;9.20;90.98;98547.38;4993383;28;20117;-68
2021/09/25 11:40:24;;;;;;;0.30;0.30;;;;;;;9.21;90.33;98538.25;4997286;28;20539;-76
2021/09/25 11:42:59;;;;;;;0.30;0.30;;;;;;;9.28;90.06;98544.66;4999333;28;20076;-73